Home > Products > Valid Products > MTR

000
SAUS45 KRIW 020957
MTRP60
METAR KP60 020956Z AUTO VRB04KT M01/M03 A3019 RMK AO1 SLP212
T10111028





000
SAUS45 KRIW 020857
MTRP60
METAR KP60 020856Z AUTO 00000KT M02/M03 A3019 RMK AO1 SLP228
T10221033 51005





000
SAUS45 KRIW 020758
MTRP60
METAR KP60 020756Z AUTO 00000KT M03/M04 A3019 RMK AO1 SLP221
T10331044





000
SAUS45 KRIW 020658
MTRP60
METAR KP60 020656Z AUTO 00000KT M03/M04 A3018 RMK AO1 SLP218
T10331044 400441033





000
SAUS45 KRIW 020557
MTRP60
METAR KP60 020556Z AUTO 00000KT M03/M04 A3018 RMK AO1 SLP222
T10331044 10022 21033 51003





000
SAUS45 KRIW 020458
MTRP60
METAR KP60 020456Z AUTO 00000KT M03/M04 A3016 RMK AO1 SLP218
T10281039





000
SAUS45 KRIW 020357
MTRP60
METAR KP60 020356Z AUTO 00000KT M02/M03 A3018 RMK AO1 SLP223
T10221033





000
SAUS45 KRIW 020258
MTRP60
METAR KP60 020256Z AUTO 00000KT M01/M02 A3016 RMK AO1 SLP217
T10111022 53015





000
SAUS45 KRIW 020157
MTRP60
METAR KP60 020156Z AUTO 00000KT 00/M02 A3014 RMK AO1 SLP210
T00001017





000
SAUS45 KRIW 020057
MTRP60
METAR KP60 020056Z AUTO 00000KT 01/M01 A3012 RMK AO1 SLP198
T00061011





000
SAUS45 KRIW 012357
MTRP60
METAR KP60 012356Z AUTO 00000KT 02/M01 A3011 RMK AO1 SLP186 P0001
60003 T00221006 10044 20000 53006





000
SAUS45 KRIW 012257
MTRP60
METAR KP60 012256Z AUTO 31006KT 02/M02 A3010 RMK AO1 SLP189
T00171017





000
SAUS45 KRIW 012157
MTRP60
METAR KP60 012156Z AUTO 26006KT 04/M01 A3008 RMK AO1 SLP171
T00391011





000
SAUS45 KRIW 012057
MTRP60
METAR KP60 012056Z AUTO VRB05KT 01/M01 A3008 RMK AO1 SLP181 P0002
60002 T00061006 53000





000
SAUS45 KRIW 011957
MTRP60
METAR KP60 011956Z AUTO 28005KT 04/M02 A3006 RMK AO1 SLP164
T00391017





000
SAUS45 KRIW 011858
MTRP60
METAR KP60 011856Z AUTO 00000KT 04/M03 A3007 RMK AO1 SLP166
T00391028





000
SAUS45 KRIW 011757
MTRP60
METAR KP60 011756Z AUTO 00000KT 02/M02 A3008 RMK AO1 SLP177
T00221022 10022 21017 51008





000
SAUS45 KRIW 011657
MTRP60
METAR KP60 011656Z AUTO VRB05KT 02/M02 A3007 RMK AO1 SLP174
T00171022





000
SAUS45 KRIW 011558
MTRP60
METAR KP60 011556Z AUTO 00000KT 01/M03 A3006 RMK AO1 SLP171
T00111028





000
SAUS45 KRIW 011458
MTRP60
METAR KP60 011456Z AUTO 00000KT M01/M02 A3005 RMK AO1 SLP166
T10061022 51015





000
SAUS45 KRIW 011358
MTRP60
METAR KP60 011356Z AUTO VRB03KT M01/M03 A3004 RMK AO1 SLP165
T10111033





000
SAUS45 KRIW 011258
MTRP60
METAR KP60 011256Z AUTO 00000KT M01/M03 A3002 RMK AO1 SLP150
T10111028





000
SAUS45 KRIW 011158
MTRP60
METAR KP60 011156Z AUTO 31004KT M01/M02 A2999 RMK AO1 SLP139 60002
70028 T10061022 10006 21006 53005





000
SAUS45 KRIW 011058
MTRP60
METAR KP60 011056Z AUTO 00000KT M01/M02 A2998 RMK AO1 SLP131
T10061017





000
SAUS45 KRIW 010957
MTRP60
METAR KP60 010956Z AUTO VRB03KT 00/M02 A2997 RMK AO1 SLP123
T00001022





000
SAUS45 KRIW 010857
MTRP60
METAR KP60 010856Z AUTO 00000KT 00/M01 A2998 RMK AO1 SLP126 60002
T00001006 53000





000
SAUS45 KRIW 010757
MTRP60
METAR KP60 010756Z AUTO 00000KT 01/00 A2997 RMK AO1 SLP127 P0001
T00060000





000
SAUS45 KRIW 010657
MTRP60
METAR KP60 010656Z AUTO 20003KT 01/M01 A2998 RMK AO1 SLP126 P0001
T00061006 400670000





000
SAUS45 KRIW 010557
MTRP60
METAR KP60 010556Z AUTO 00000KT 00/M01 A2997 RMK AO1 SLP125 P0010
60024 T00001006 10044 20000 50005





000
SAUS45 KRIW 010458
MTRP60
METAR KP60 010456Z AUTO VRB03KT 01/00 A2998 RMK AO1 SLP130 P0005
T00060000





000
SAUS45 KRIW 010357
MTRP60
METAR KP60 010356Z AUTO 00000KT 01/00 A2997 RMK AO1 SLP126 P0005
T00060000





000
SAUS45 KRIW 010257
MTRP60
METAR KP60 010256Z AUTO 00000KT 02/01 A2995 RMK AO1 SLP118 P0001
60004 T00220011 53010





000
SAUS45 KRIW 010158
MTRP60
METAR KP60 010156Z AUTO 00000KT 02/01 A2993 RMK AO1 SLP114 P0003
T00220011





000
SAUS45 KRIW 010057
MTRP60
METAR KP60 010056Z AUTO VRB03KT 04/02 A2992 RMK AO1 SLP102 T00390022





000
SAUS45 KRIW 302357
MTRP60
METAR KP60 302356Z AUTO 00000KT 04/03 A2991 RMK AO1 SLP100 60002
T00440028 10067 20044 55000





000
SAUS45 KRIW 302257
MTRP60
METAR KP60 302256Z AUTO VRB03KT 06/02 A2991 RMK AO1 SLP094 T00560022





000
SAUS45 KRIW 302157
MTRP60
METAR KP60 302156Z AUTO VRB04G15KT 06/02 A2990 RMK AO1 SLP090
T00610017





000
SAUS45 KRIW 302057
MTRP60
METAR KP60 302056Z AUTO VRB04KT 06/02 A2991 RMK AO1 SLP093 P0001
60002 T00610022 58006





000
SAUS45 KRIW 301957
MTRP60
METAR KP60 301956Z AUTO 29004KT 05/03 A2993 RMK AO1 SLP103 P0001
T00500028





000
SAUS45 KRIW 301857
MTRP60
METAR KP60 301856Z AUTO 27007G16KT 230V300 06/02 A2993 RMK AO1
SLP099 T00610017





000
SAUS45 KRIW 301758
MTRP60
METAR KP60 301756Z AUTO 27007KT 200V300 06/02 A2993 RMK AO1 SLP100
T00610017 10061 20033 58001





000
SAUS45 KRIW 301657
MTRP60
METAR KP60 301656Z AUTO 27008KT 05/02 A2994 RMK AO1 SLP101 T00500017





000
SAUS45 KRIW 301557
MTRP60
METAR KP60 301556Z AUTO 27005KT 04/01 A2994 RMK AO1 SLP106 T00440011





000
SAUS45 KRIW 301457
MTRP60
METAR KP60 301456Z AUTO 00000KT 04/02 A2994 RMK AO1 SLP106 T00390017
56003





000
SAUS45 KRIW 301357
MTRP60
METAR KP60 301356Z AUTO 29004KT 03/02 A2994 RMK AO1 SLP110 T00330017





000
SAUS45 KRIW 301258
MTRP60
METAR KP60 301256Z AUTO 28005KT 03/02 A2994 RMK AO1 SLP107 T00330017





000
SAUS45 KRIW 301157
MTRP60
METAR KP60 301156Z AUTO 00000KT 03/02 A2995 RMK AO1 SLP106 P0001
60001 70005 T00330022 10039 20033 56013





000
SAUS45 KRIW 301057
MTRP60
METAR KP60 301056Z AUTO 00000KT 03/02 A2996 RMK AO1 SLP106 T00330017





000
SAUS45 KRIW 300957
MTRP60
METAR KP60 300956Z AUTO 00000KT 03/01 A2998 RMK AO1 SLP116 T00330011





000
SAUS45 KRIW 300858
MTRP60
METAR KP60 300856Z AUTO VRB03KT 03/02 A3000 RMK AO1 SLP120 T00330017
58008





000
SAUS45 KRIW 300757
MTRP60
METAR KP60 300756Z AUTO VRB03KT 03/02 A3001 RMK AO1 SLP118 T00330017





000
SAUS45 KRIW 300658
MTRP60
METAR KP60 300656Z AUTO 00000KT 03/02 A3002 RMK AO1 SLP125 T00330017
401000017





000
SAUS45 KRIW 300557
MTRP60
METAR KP60 300556Z AUTO VRB03KT 04/02 A3003 RMK AO1 SLP131 T00390022
10067 20033 53001





000
SAUS45 KRIW 300457
MTRP60
METAR KP60 300456Z AUTO VRB03KT 04/02 A3001 RMK AO1 SLP127 T00440017





000
SAUS45 KRIW 300358
MTRP60
METAR KP60 300356Z AUTO 26006KT 04/01 A3001 RMK AO1 SLP129 T00390011





000
SAUS45 KRIW 300258
MTRP60
METAR KP60 300256Z AUTO 00000KT 04/02 A3002 RMK AO1 SLP133 T00440017
58002





000
SAUS45 KRIW 300158
MTRP60
METAR KP60 300156Z AUTO 00000KT 04/01 A3003 RMK AO1 SLP142 T00440011





000
SAUS45 KRIW 300057
MTRP60
METAR KP60 300056Z AUTO VRB03KT 05/01 A3003 RMK AO1 SLP140 T00500011





000
SAUS45 KRIW 292357
MTRP60
METAR KP60 292356Z AUTO 00000KT 06/02 A3003 RMK AO1 SLP139 T00610017
10100 20061 51009





000
SAUS45 KRIW 292258
MTRP60
METAR KP60 292256Z AUTO 27007KT 08/02 A3002 RMK AO1 SLP127 T00780017





000
SAUS45 KRIW 292157
MTRP60
METAR KP60 292156Z AUTO VRB05KT 07/02 A3001 RMK AO1 SLP129 T00670022





000
SAUS45 KRIW 292057
MTRP60
METAR KP60 292056Z AUTO 28007G16KT 240V310 08/03 A3000 RMK AO1
SLP123 T00780033 56010





000
SAUS45 KRIW 291957
MTRP60
METAR KP60 291956Z AUTO VRB06KT 10/03 A3000 RMK AO1 SLP118 T01000028





000
SAUS45 KRIW 291858
MTRP60
METAR KP60 291856Z AUTO 00000KT 08/03 A3002 RMK AO1 SLP123 T00830033





000
SAUS45 KRIW 291757
MTRP60
METAR KP60 291756Z AUTO 00000KT 07/03 A3003 RMK AO1 SLP133 P0001
60004 T00720033 10072 20028 58007





000
SAUS45 KRIW 291657
MTRP60
METAR KP60 291656Z AUTO 00000KT 05/04 A3006 RMK AO1 SLP142 P0003
T00500039





000
SAUS45 KRIW 291557
MTRP60
METAR KP60 291556Z AUTO 00000KT 06/02 A3006 RMK AO1 SLP138 T00610022





000
SAUS45 KRIW 291457
MTRP60
METAR KP60 291456Z AUTO 00000KT 05/04 A3006 RMK AO1 SLP136 T00500039
58005





000
SAUS45 KRIW 291358
MTRP60
METAR KP60 291356Z AUTO 00000KT 03/02 A3007 RMK AO1 SLP146 T00280022





000
SAUS45 KRIW 291257
MTRP60
METAR KP60 291256Z AUTO 31003KT 03/02 A3007 RMK AO1 SLP143 T00280017





000
SAUS45 KRIW 291158
MTRP60
METAR KP60 291156Z AUTO 00000KT 03/02 A3008 RMK AO1 SLP145 70001
T00280022 10044 20017 56018





000
SAUS45 KRIW 291057
MTRP60
METAR KP60 291056Z AUTO 00000KT 03/02 A3009 RMK AO1 SLP144 T00330022





    US Dept of Commerce
    National Oceanic and Atmospheric Administration
    National Weather Service
    1325 East West Highway
    Silver Spring, MD 20910
    Page Author: NWS Internet Services Team
Disclaimer
Information Quality
Credits
Glossary
Privacy Policy
Freedom of Information Act (FOIA)
About Us
Career Opportunities